Terminal Aerodrome Forecast
Issued by NWS

Home | Current Version | Previous Version | Text Only | Print | Product List | Glossary On
Versions: 1 2 3 4 5 6 7 8 9 10 11 12 13 14 15 16 17 18 19 20 21 22 23 24 25 26 27 28
000
FTUS45 KBOU 201129
TAFBJC
TAF
KBJC 201129Z 2012/2112 26005KT P6SM FEW110 BKN220
     FM202000 31005KT P6SM SCT090 BKN140
     FM210800 27010KT P6SM SCT090 BKN140=

USA.gov is the U.S. government's official web portal to all federal, state and local government web resources and services.